CST,Max TemperatureF,Mean TemperatureF,Min TemperatureF,Max Dew PointF,MeanDew PointF,Min DewpointF,Max Humidity, Mean Humidity, Min Humidity, Max Sea Level PressureIn, Mean Sea Level PressureIn, Min Sea Level PressureIn, Max VisibilityMiles, Mean VisibilityMiles, Min VisibilityMiles, Max Wind SpeedMPH, Mean Wind SpeedMPH, Max Gust SpeedMPH,PrecipitationIn, CloudCover, Events, WindDirDegrees
2012-10-1,84,75,66,70,65,63,94,78,51,30.04,29.94,29.75,12,7,3,10,3,,0.00,5,Fog-Rain,215
2012-10-2,86,75,64,70,65,61,94,77,38,30.04,29.96,29.80,12,7,2,14,5,,0.02,5,Fog-Rain-Thunderstorm,114
2012-10-3,84,75,66,68,63,59,88,70,42,30.06,29.97,29.83,12,8,6,12,6,,0.00,5,Fog-Rain,94
2012-10-4,88,78,68,72,63,55,94,68,35,30.09,29.99,29.80,12,8,5,14,8,,0.01,6,Fog-Rain,114
2012-10-5,84,75,66,68,63,59,89,73,44,30.03,29.95,29.76,12,9,2,12,7,,0.00,6,Rain-Thunderstorm,83
2012-10-6,80,71,62,70,64,57,94,76,38,30.00,29.92,29.77,12,7,2,13,5,,0.00,5,Fog-Rain-Thunderstorm,74
2012-10-7,80,72,63,73,64,57,94,79,50,30.04,29.93,29.77,12,7,2,10,5,,0.00,6,Fog-Rain,187
2012-10-8,78,70,63,68,65,63,94,86,67,30.08,29.99,29.85,12,6,2,12,4,,0.12,6,Fog-Rain,268
2012-10-9,80,73,66,68,66,63,94,84,58,30.09,30.00,29.82,12,6,0,12,3,,0.02,6,Fog-Rain,246
2012-10-10,78,72,65,70,65,63,94,83,63,30.10,30.00,29.86,12,6,1,6,3,,0.04,6,Fog-Rain,157
2012-10-11,83,74,64,66,63,61,94,74,44,30.07,29.98,29.81,12,6,0,13,5,,0.00,5,Fog-Rain,100
2012-10-12,85,76,66,70,64,60,94,75,41,30.04,29.97,29.79,12,7,0,14,6,,0.55,4,Fog-Rain,101
2012-10-13,82,72,63,70,65,61,94,78,48,30.03,29.96,29.77,12,6,2,14,7,,0.16,6,Fog-Rain-Thunderstorm,152
2012-10-14,80,72,64,68,65,61,95,85,53,30.05,29.97,29.81,12,7,2,12,4,,0.47,6,Fog-Rain,232
2012-10-15,78,72,65,68,66,64,100,84,58,30.04,29.95,29.75,12,5,1,12,4,,0.02,6,Fog-Rain,218
2012-10-16,80,71,62,70,64,59,94,84,54,30.04,29.95,29.80,12,6,2,12,3,,0.51,5,Fog-Rain,169
2012-10-17,80,72,64,68,64,62,94,83,48,30.04,29.97,29.81,12,6,0,13,3,,1.38,5,Fog-Rain-Thunderstorm,143
2012-10-18,80,73,66,68,65,58,94,83,56,30.06,29.97,29.82,12,5,1,14,3,,0.28,6,Fog-Rain,185
2012-10-19,83,74,65,68,66,64,95,87,64,30.03,29.95,29.78,12,4,0,12,4,,0.02,6,Fog-Rain,244
2012-10-20,79,73,67,68,67,66,94,87,61,30.01,29.93,29.79,9,4,0,13,4,,0.16,6,Fog-Rain,237
2012-10-21,78,72,67,70,67,66,94,90,66,30.03,29.92,29.75,12,4,0,14,3,,0.28,6,Fog-Rain-Thunderstorm,224
2012-10-22,79,72,66,68,67,66,94,87,58,29.96,29.88,29.71,12,4,0,12,3,,0.04,6,Fog-Rain-Thunderstorm,235
2012-10-23,80,73,66,70,66,64,94,87,62,29.95,29.85,29.56,12,6,1,10,4,,1.34,6,Fog-Rain-Thunderstorm,210
2012-10-24,76,71,66,68,66,65,100,91,70,29.98,29.90,29.76,12,5,0,13,3,,0.94,6,Fog-Rain,267
2012-10-25,75,70,65,66,65,54,100,90,64,30.02,29.95,29.80,12,5,1,10,4,,0.67,6,Fog-Rain,274
2012-10-26,78,71,64,68,65,61,94,86,58,30.03,29.95,29.78,12,5,0,10,4,,0.00,6,Fog-Rain,246
2012-10-27,82,74,65,70,65,59,95,80,51,30.00,29.92,29.75,12,5,0,12,5,,0.00,5,Fog-Rain,242
2012-10-28,81,73,65,63,60,59,83,64,43,30.02,29.94,29.80,12,8,6,18,7,23,0.00,2,,78
2012-10-29,80,72,63,63,60,56,78,65,48,30.09,29.98,29.83,12,8,6,12,7,,0.00,5,,89
2012-10-30,81,72,64,63,59,57,78,61,39,30.11,30.00,29.83,12,8,6,13,8,,0.00,4,,84
2012-10-31,81,74,66,64,61,59,88,69,51,30.09,30.00,29.85,12,8,6,16,7,,0.00,5,Rain,101